< Cyclone 201410 2014 Season Cyclone 201414 >
Cyclone 201413 (Hadi)
General InformationTrack Information on Google MapsDetailed Wind InformationList of All Images || ResourceGoogle EarthGE AnimationAtom FeedGeoJSON
Detalied Best Track (Time Zone = UTC)
Year Month Day Hour Lat. Long. Pressure (hPa) Wind (kt) Class Image Chart
2014 2 28 00 -13.3 160.0 1002 20 2 Image --
2014 2 28 12 -12.4 157.4 1002 25 2 Image --
2014 3 1 00 -11.4 156.5 1003 25 2 Image --
2014 3 1 06 -11.0 156.7 1000 25 2 Image --
2014 3 1 12 -10.9 157.2 1004 25 2 Image --
2014 3 2 00 -10.9 158.0 1003 25 2 Image --
2014 3 2 06 -10.5 158.2 1001 25 2 Image --
2014 3 2 12 -10.4 158.0 1003 20 2 Image --
2014 3 3 00 -10.9 157.0 1002 20 2 Image --
2014 3 3 06 -11.1 157.2 1002 20 2 Image --
2014 3 3 12 -10.9 157.0 1004 20 2 Image --
2014 3 3 18 -10.7 156.8 1003 20 2 Image --
2014 3 4 00 -10.9 154.5 1003 20 2 Image --
2014 3 5 00 -10.7 152.3 1003.2 21 0 Image --
2014 3 5 06 -9.4 155.7 1003.4 22 0 Image --
2014 3 5 12 -10.1 156.2 1003.6 23 0 Image --
2014 3 5 18 -10.4 156.0 1003.8 24 0 Image --
2014 3 6 00 -12.0 155.8 1004 25 2 Image --
2014 3 6 06 -13.1 154.7 1002 25 2 Image --
2014 3 6 12 -13.8 154.2 1005 25 2 Image --
2014 3 6 18 -14.6 152.8 1003 25 2 Image --
2014 3 7 00 -14.4 151.8 1001 15 2 Image --
2014 3 7 06 -14.6 151.1 1000 20 2 Image --
2014 3 7 12 -14.9 150.6 999 20 2 Image --
2014 3 7 18 -15.1 150.0 999 20 2 Image --
2014 3 8 00 -15.4 149.6 1000 25 2 Image --
2014 3 8 06 -15.7 149.6 999 25 2 Image --
2014 3 8 12 -16.3 150.1 999 25 2 Image --
2014 3 8 18 -16.9 150.0 997 25 2 Image --
2014 3 9 00 -17.6 149.7 997 25 2 Image --
2014 3 9 06 -17.9 149.7 996 25 2 Image --
2014 3 9 12 -18.3 150.1 996 30 2 Image --
2014 3 9 18 -18.6 150.6 995 35 3 Image --
2014 3 10 00 -18.8 150.9 996 40 3 Image --
2014 3 10 06 -18.9 151.2 992 40 3 Image --
2014 3 10 12 -18.8 151.5 996 40 3 Image --
2014 3 10 18 -18.2 151.4 999 30 2 Image --
2014 3 11 00 -17.7 151.2 1000 30 2 Image --
2014 3 11 06 -17.4 151.4 1000 25 2 Image --
2014 3 11 12 -17.0 152.6 1001 25 2 Image --
2014 3 11 18 -16.6 153.2 1003.5 27.5 0 Image --
2014 3 12 00 -15.4 154.8 1006 30 2 Image --
2014 3 12 06 -14.8 157.0 1003 30 2 Image --
2014 3 12 12 -14.4 158.9 1001 30 2 Image --
2014 3 12 18 -14.0 160.8 1001 0 0 Image --
2014 3 13 00 -12.3 164.6 1001 0 0 Image --
2014 3 13 06 -12.2 166.9 1001 0 0 Image --
2014 3 14 18 -13.8 172.9 1001 0 0 Image --
2014 3 15 00 -14.4 172.9 1001 0 0 Image --
2014 3 15 06 -15.6 172.5 1001 0 0 Image --
2014 3 15 18 -15.8 170.5 1001 0 0 Image --
2014 3 16 00 -15.3 169.2 1001 0 0 Image --
2014 3 17 12 -15.2 165.8 1001 0 0 Image --
< Cyclone 201410 2014 Season Cyclone 201414 >

Help